sensor_id;sensor_type;location;lat;lon;timestamp;pressure;altitude;pressure_sealevel;temperature;humidity
13387;BME280;6763;48.524;9.044;2022-08-14T00:01:35;97414.31;;;22.76;36.64
13387;BME280;6763;48.524;9.044;2022-08-14T00:04:01;97422.22;;;22.76;36.51
13387;BME280;6763;48.524;9.044;2022-08-14T00:06:26;97421.50;;;22.74;36.42
13387;BME280;6763;48.524;9.044;2022-08-14T00:08:52;97426.06;;;22.72;36.53
13387;BME280;6763;48.524;9.044;2022-08-14T00:11:17;97412.94;;;22.70;36.85
13387;BME280;6763;48.524;9.044;2022-08-14T00:13:43;97406.09;;;22.68;36.73
13387;BME280;6763;48.524;9.044;2022-08-14T00:16:08;97401.91;;;22.65;36.84
13387;BME280;6763;48.524;9.044;2022-08-14T00:18:38;97394.94;;;22.64;36.93
13387;BME280;6763;48.524;9.044;2022-08-14T00:21:05;97389.00;;;22.61;36.82
13387;BME280;6763;48.524;9.044;2022-08-14T00:23:31;97386.59;;;22.58;37.02
13387;BME280;6763;48.524;9.044;2022-08-14T00:25:56;97386.09;;;22.53;37.26
13387;BME280;6763;48.524;9.044;2022-08-14T00:28:21;97386.31;;;22.50;36.91
13387;BME280;6763;48.524;9.044;2022-08-14T00:30:52;97383.06;;;22.46;36.90
13387;BME280;6763;48.524;9.044;2022-08-14T00:33:18;97395.97;;;22.38;37.12
13387;BME280;6763;48.524;9.044;2022-08-14T00:35:44;97389.66;;;22.28;37.20
13387;BME280;6763;48.524;9.044;2022-08-14T00:38:10;97385.38;;;22.14;37.38
13387;BME280;6763;48.524;9.044;2022-08-14T00:40:36;97382.00;;;22.00;37.73
13387;BME280;6763;48.524;9.044;2022-08-14T00:43:01;97382.22;;;21.84;37.88
13387;BME280;6763;48.524;9.044;2022-08-14T00:45:27;97390.13;;;21.72;37.94
13387;BME280;6763;48.524;9.044;2022-08-14T00:47:52;97382.88;;;21.62;38.36
13387;BME280;6763;48.524;9.044;2022-08-14T00:50:19;97385.00;;;21.57;38.28
13387;BME280;6763;48.524;9.044;2022-08-14T00:52:47;97381.94;;;21.51;38.39
13387;BME280;6763;48.524;9.044;2022-08-14T00:55:13;97382.47;;;21.43;38.61
13387;BME280;6763;48.524;9.044;2022-08-14T00:57:39;97388.25;;;21.36;38.87
13387;BME280;6763;48.524;9.044;2022-08-14T01:00:09;97388.97;;;21.25;39.20
13387;BME280;6763;48.524;9.044;2022-08-14T01:02:37;97379.28;;;21.13;39.46
13387;BME280;6763;48.524;9.044;2022-08-14T01:05:05;97375.63;;;21.01;40.06
13387;BME280;6763;48.524;9.044;2022-08-14T01:07:32;97378.16;;;20.90;39.96
13387;BME280;6763;48.524;9.044;2022-08-14T01:10:00;97376.03;;;20.83;40.29
13387;BME280;6763;48.524;9.044;2022-08-14T01:12:27;97379.47;;;20.71;40.67
13387;BME280;6763;48.524;9.044;2022-08-14T01:14:54;97379.22;;;20.61;40.74
13387;BME280;6763;48.524;9.044;2022-08-14T01:17:23;97387.91;;;20.49;40.86
13387;BME280;6763;48.524;9.044;2022-08-14T01:20:09;97393.09;;;20.36;41.09
13387;BME280;6763;48.524;9.044;2022-08-14T01:22:53;97392.19;;;20.23;41.25
13387;BME280;6763;48.524;9.044;2022-08-14T01:25:19;97384.00;;;20.14;41.63
13387;BME280;6763;48.524;9.044;2022-08-14T01:27:44;97380.09;;;20.07;41.35
13387;BME280;6763;48.524;9.044;2022-08-14T01:30:11;97384.88;;;20.00;41.50
13387;BME280;6763;48.524;9.044;2022-08-14T01:32:36;97387.13;;;19.92;41.95
13387;BME280;6763;48.524;9.044;2022-08-14T01:35:02;97387.72;;;19.83;41.90
13387;BME280;6763;48.524;9.044;2022-08-14T01:37:31;97397.84;;;19.75;42.21
13387;BME280;6763;48.524;9.044;2022-08-14T01:39:56;97387.81;;;19.67;42.43
13387;BME280;6763;48.524;9.044;2022-08-14T01:42:22;97379.56;;;19.59;42.60
13387;BME280;6763;48.524;9.044;2022-08-14T01:44:47;97383.41;;;19.54;42.43
13387;BME280;6763;48.524;9.044;2022-08-14T01:47:16;97381.06;;;19.49;42.45
13387;BME280;6763;48.524;9.044;2022-08-14T01:49:43;97386.41;;;19.48;42.80
13387;BME280;6763;48.524;9.044;2022-08-14T01:52:08;97383.97;;;19.45;42.68
13387;BME280;6763;48.524;9.044;2022-08-14T01:54:35;97370.19;;;19.41;42.58
13387;BME280;6763;48.524;9.044;2022-08-14T01:57:01;97365.25;;;19.35;42.70
13387;BME280;6763;48.524;9.044;2022-08-14T01:59:32;97370.50;;;19.35;42.75
13387;BME280;6763;48.524;9.044;2022-08-14T02:02:00;97361.88;;;19.33;42.68
13387;BME280;6763;48.524;9.044;2022-08-14T02:04:33;97371.53;;;19.33;42.60
13387;BME280;6763;48.524;9.044;2022-08-14T02:06:59;97361.25;;;19.30;42.68
13387;BME280;6763;48.524;9.044;2022-08-14T02:09:27;97359.53;;;19.29;42.78
13387;BME280;6763;48.524;9.044;2022-08-14T02:11:52;97347.16;;;19.31;42.71
13387;BME280;6763;48.524;9.044;2022-08-14T02:14:18;97350.47;;;19.34;42.86
13387;BME280;6763;48.524;9.044;2022-08-14T02:16:48;97351.91;;;19.40;42.70
13387;BME280;6763;48.524;9.044;2022-08-14T02:19:20;97345.53;;;19.44;42.70
13387;BME280;6763;48.524;9.044;2022-08-14T02:21:50;97337.56;;;19.45;42.53
13387;BME280;6763;48.524;9.044;2022-08-14T02:24:20;97344.50;;;19.46;42.63
13387;BME280;6763;48.524;9.044;2022-08-14T02:26:46;97334.09;;;19.45;42.61
13387;BME280;6763;48.524;9.044;2022-08-14T02:29:19;97328.00;;;19.44;42.61
13387;BME280;6763;48.524;9.044;2022-08-14T02:31:49;97325.38;;;19.44;42.68
13387;BME280;6763;48.524;9.044;2022-08-14T02:34:21;97330.72;;;19.43;42.73
13387;BME280;6763;48.524;9.044;2022-08-14T02:36:49;97319.56;;;19.39;42.73
13387;BME280;6763;48.524;9.044;2022-08-14T02:39:16;97316.25;;;19.36;42.86
13387;BME280;6763;48.524;9.044;2022-08-14T02:41:41;97319.03;;;19.33;42.95
13387;BME280;6763;48.524;9.044;2022-08-14T02:44:08;97314.00;;;19.30;42.76
13387;BME280;6763;48.524;9.044;2022-08-14T02:46:38;97307.97;;;19.28;42.79
13387;BME280;6763;48.524;9.044;2022-08-14T02:49:05;97301.25;;;19.24;42.76
13387;BME280;6763;48.524;9.044;2022-08-14T02:51:34;97297.88;;;19.22;43.04
13387;BME280;6763;48.524;9.044;2022-08-14T02:54:00;97302.28;;;19.21;43.06
13387;BME280;6763;48.524;9.044;2022-08-14T02:56:26;97293.44;;;19.22;42.91
13387;BME280;6763;48.524;9.044;2022-08-14T02:58:51;97302.16;;;19.23;43.06
13387;BME280;6763;48.524;9.044;2022-08-14T03:01:20;97299.66;;;19.21;43.01
13387;BME280;6763;48.524;9.044;2022-08-14T03:03:47;97295.44;;;19.18;43.38
13387;BME280;6763;48.524;9.044;2022-08-14T03:06:14;97295.81;;;19.12;43.43
13387;BME280;6763;48.524;9.044;2022-08-14T03:08:41;97290.94;;;19.06;43.86
13387;BME280;6763;48.524;9.044;2022-08-14T03:11:09;97289.59;;;18.99;43.90
13387;BME280;6763;48.524;9.044;2022-08-14T03:13:36;97289.03;;;18.94;43.92
13387;BME280;6763;48.524;9.044;2022-08-14T03:16:04;97283.16;;;18.91;44.05
13387;BME280;6763;48.524;9.044;2022-08-14T03:18:30;97279.13;;;18.85;44.27
13387;BME280;6763;48.524;9.044;2022-08-14T03:20:56;97275.16;;;18.78;44.46
13387;BME280;6763;48.524;9.044;2022-08-14T03:23:21;97277.41;;;18.70;44.65
13387;BME280;6763;48.524;9.044;2022-08-14T03:25:47;97266.59;;;18.61;44.61
13387;BME280;6763;48.524;9.044;2022-08-14T03:28:13;97265.16;;;18.55;44.82
13387;BME280;6763;48.524;9.044;2022-08-14T03:30:39;97258.69;;;18.46;45.06
13387;BME280;6763;48.524;9.044;2022-08-14T03:33:05;97257.44;;;18.38;45.45
13387;BME280;6763;48.524;9.044;2022-08-14T03:35:32;97257.03;;;18.30;45.83
13387;BME280;6763;48.524;9.044;2022-08-14T03:38:06;97260.00;;;18.24;45.52
13387;BME280;6763;48.524;9.044;2022-08-14T03:40:39;97258.66;;;18.17;45.97
13387;BME280;6763;48.524;9.044;2022-08-14T03:43:06;97261.56;;;18.12;45.69
13387;BME280;6763;48.524;9.044;2022-08-14T03:45:34;97251.25;;;18.09;45.83
13387;BME280;6763;48.524;9.044;2022-08-14T03:48:08;97252.25;;;18.07;45.88
13387;BME280;6763;48.524;9.044;2022-08-14T03:50:37;97255.03;;;18.04;45.93
13387;BME280;6763;48.524;9.044;2022-08-14T03:53:03;97249.97;;;18.01;45.82
13387;BME280;6763;48.524;9.044;2022-08-14T03:55:29;97253.44;;;18.01;45.58
13387;BME280;6763;48.524;9.044;2022-08-14T03:57:55;97254.19;;;18.03;45.97
13387;BME280;6763;48.524;9.044;2022-08-14T04:00:21;97255.16;;;18.02;46.03
13387;BME280;6763;48.524;9.044;2022-08-14T04:02:47;97260.63;;;17.97;45.90
13387;BME280;6763;48.524;9.044;2022-08-14T04:05:13;97252.97;;;17.94;45.89
13387;BME280;6763;48.524;9.044;2022-08-14T04:07:40;97245.44;;;17.88;46.13
13387;BME280;6763;48.524;9.044;2022-08-14T04:10:06;97244.00;;;17.83;46.45
13387;BME280;6763;48.524;9.044;2022-08-14T04:12:32;97245.13;;;17.79;46.29
13387;BME280;6763;48.524;9.044;2022-08-14T04:14:58;97246.97;;;17.77;46.30
13387;BME280;6763;48.524;9.044;2022-08-14T04:17:24;97250.53;;;17.76;46.63
13387;BME280;6763;48.524;9.044;2022-08-14T04:19:50;97245.28;;;17.76;46.43
13387;BME280;6763;48.524;9.044;2022-08-14T04:22:16;97247.91;;;17.76;46.62
13387;BME280;6763;48.524;9.044;2022-08-14T04:24:45;97244.59;;;17.72;46.92
13387;BME280;6763;48.524;9.044;2022-08-14T04:27:11;97244.78;;;17.69;46.92
13387;BME280;6763;48.524;9.044;2022-08-14T04:29:41;97256.25;;;17.67;46.93
13387;BME280;6763;48.524;9.044;2022-08-14T04:32:08;97258.06;;;17.66;47.35
13387;BME280;6763;48.524;9.044;2022-08-14T04:34:35;97257.19;;;17.66;46.99
13387;BME280;6763;48.524;9.044;2022-08-14T04:37:04;97259.81;;;17.66;47.30
13387;BME280;6763;48.524;9.044;2022-08-14T04:39:48;97258.97;;;17.65;46.91
13387;BME280;6763;48.524;9.044;2022-08-14T04:42:32;97254.75;;;17.63;47.02
13387;BME280;6763;48.524;9.044;2022-08-14T04:45:18;97263.53;;;17.62;47.06
13387;BME280;6763;48.524;9.044;2022-08-14T04:47:43;97271.38;;;17.62;46.95
13387;BME280;6763;48.524;9.044;2022-08-14T04:50:27;97269.69;;;17.61;47.08
13387;BME280;6763;48.524;9.044;2022-08-14T04:52:53;97260.75;;;17.65;46.97
13387;BME280;6763;48.524;9.044;2022-08-14T04:55:18;97268.16;;;17.72;46.50
13387;BME280;6763;48.524;9.044;2022-08-14T04:57:44;97266.66;;;17.84;46.67
13387;BME280;6763;48.524;9.044;2022-08-14T05:00:12;97276.16;;;18.01;46.27
13387;BME280;6763;48.524;9.044;2022-08-14T05:02:38;97285.38;;;18.23;45.69
13387;BME280;6763;48.524;9.044;2022-08-14T05:05:03;97282.63;;;18.40;45.07
13387;BME280;6763;48.524;9.044;2022-08-14T05:07:30;97282.50;;;18.57;45.01
13387;BME280;6763;48.524;9.044;2022-08-14T05:09:55;97275.25;;;18.77;44.26
13387;BME280;6763;48.524;9.044;2022-08-14T05:12:21;97283.22;;;18.89;43.89
13387;BME280;6763;48.524;9.044;2022-08-14T05:14:47;97274.72;;;19.00;43.65
13387;BME280;6763;48.524;9.044;2022-08-14T05:17:12;97270.59;;;19.10;43.80
13387;BME280;6763;48.524;9.044;2022-08-14T05:19:38;97261.97;;;19.22;43.60
13387;BME280;6763;48.524;9.044;2022-08-14T05:22:03;97252.50;;;19.34;43.18
13387;BME280;6763;48.524;9.044;2022-08-14T05:24:29;97246.22;;;19.36;43.13
13387;BME280;6763;48.524;9.044;2022-08-14T05:26:54;97248.78;;;19.38;43.14
13387;BME280;6763;48.524;9.044;2022-08-14T05:29:20;97248.00;;;19.36;42.92
13387;BME280;6763;48.524;9.044;2022-08-14T05:31:45;97250.81;;;19.33;42.87
13387;BME280;6763;48.524;9.044;2022-08-14T05:34:11;97249.03;;;19.33;42.95
13387;BME280;6763;48.524;9.044;2022-08-14T05:36:36;97247.16;;;19.35;42.76
13387;BME280;6763;48.524;9.044;2022-08-14T05:39:03;97243.53;;;19.38;42.62
13387;BME280;6763;48.524;9.044;2022-08-14T05:41:29;97239.06;;;19.40;42.59
13387;BME280;6763;48.524;9.044;2022-08-14T05:43:54;97244.84;;;19.45;42.54
13387;BME280;6763;48.524;9.044;2022-08-14T05:46:20;97242.47;;;19.54;42.56
13387;BME280;6763;48.524;9.044;2022-08-14T05:48:54;97243.41;;;19.67;42.34
13387;BME280;6763;48.524;9.044;2022-08-14T05:51:21;97240.94;;;19.78;42.06
13387;BME280;6763;48.524;9.044;2022-08-14T05:53:47;97238.34;;;19.91;41.61
13387;BME280;6763;48.524;9.044;2022-08-14T05:56:12;97229.78;;;20.02;41.56
13387;BME280;6763;48.524;9.044;2022-08-14T05:58:38;97236.97;;;20.12;41.32
13387;BME280;6763;48.524;9.044;2022-08-14T06:01:04;97224.06;;;20.22;41.47
13387;BME280;6763;48.524;9.044;2022-08-14T06:03:29;97233.69;;;20.35;41.04
13387;BME280;6763;48.524;9.044;2022-08-14T06:05:55;97230.16;;;20.49;40.70
13387;BME280;6763;48.524;9.044;2022-08-14T06:08:26;97224.06;;;20.61;40.66
13387;BME280;6763;48.524;9.044;2022-08-14T06:10:54;97223.22;;;20.73;40.39
13387;BME280;6763;48.524;9.044;2022-08-14T06:13:20;97217.22;;;20.84;40.18
13387;BME280;6763;48.524;9.044;2022-08-14T06:15:47;97209.34;;;20.96;39.93
13387;BME280;6763;48.524;9.044;2022-08-14T06:18:14;97212.09;;;21.08;39.68
13387;BME280;6763;48.524;9.044;2022-08-14T06:20:40;97204.50;;;21.16;39.33
13387;BME280;6763;48.524;9.044;2022-08-14T06:23:05;97199.56;;;21.24;39.20
13387;BME280;6763;48.524;9.044;2022-08-14T06:25:31;97198.81;;;21.34;39.04
13387;BME280;6763;48.524;9.044;2022-08-14T06:27:57;97204.13;;;21.45;38.92
13387;BME280;6763;48.524;9.044;2022-08-14T06:30:25;97193.88;;;21.53;38.71
13387;BME280;6763;48.524;9.044;2022-08-14T06:32:51;97191.47;;;21.63;38.65
13387;BME280;6763;48.524;9.044;2022-08-14T06:35:18;97191.63;;;21.73;38.18
13387;BME280;6763;48.524;9.044;2022-08-14T06:37:52;97179.69;;;21.80;38.16
13387;BME280;6763;48.524;9.044;2022-08-14T06:40:24;97178.84;;;21.92;37.91
13387;BME280;6763;48.524;9.044;2022-08-14T06:42:51;97175.38;;;22.02;37.75
13387;BME280;6763;48.524;9.044;2022-08-14T06:45:17;97167.53;;;22.13;37.58
13387;BME280;6763;48.524;9.044;2022-08-14T06:47:44;97168.19;;;22.28;37.67
13387;BME280;6763;48.524;9.044;2022-08-14T06:50:15;97169.75;;;22.42;37.33
13387;BME280;6763;48.524;9.044;2022-08-14T06:52:42;97160.81;;;22.55;37.36
13387;BME280;6763;48.524;9.044;2022-08-14T06:55:10;97155.00;;;22.74;37.05
13387;BME280;6763;48.524;9.044;2022-08-14T06:57:41;97143.09;;;22.91;36.81
13387;BME280;6763;48.524;9.044;2022-08-14T07:00:10;97138.22;;;23.08;36.62
13387;BME280;6763;48.524;9.044;2022-08-14T07:02:36;97118.59;;;23.22;36.41
13387;BME280;6763;48.524;9.044;2022-08-14T07:05:21;97112.88;;;23.39;36.35
13387;BME280;6763;48.524;9.044;2022-08-14T07:08:05;97108.59;;;23.59;35.99
13387;BME280;6763;48.524;9.044;2022-08-14T07:10:31;97114.91;;;23.78;35.44
13387;BME280;6763;48.524;9.044;2022-08-14T07:12:57;97123.97;;;23.96;34.97
13387;BME280;6763;48.524;9.044;2022-08-14T07:15:22;97126.47;;;24.09;34.89
13387;BME280;6763;48.524;9.044;2022-08-14T07:17:49;97128.66;;;24.25;34.86
13387;BME280;6763;48.524;9.044;2022-08-14T07:20:15;97126.66;;;24.38;34.61
13387;BME280;6763;48.524;9.044;2022-08-14T07:22:47;97125.47;;;24.51;34.36
13387;BME280;6763;48.524;9.044;2022-08-14T07:25:14;97129.34;;;24.68;34.25
13387;BME280;6763;48.524;9.044;2022-08-14T07:27:40;97125.13;;;24.86;33.98
13387;BME280;6763;48.524;9.044;2022-08-14T07:30:06;97122.97;;;25.01;33.68
13387;BME280;6763;48.524;9.044;2022-08-14T07:32:32;97125.84;;;25.18;33.52
13387;BME280;6763;48.524;9.044;2022-08-14T07:34:57;97129.63;;;25.35;33.12
13387;BME280;6763;48.524;9.044;2022-08-14T07:37:23;97125.66;;;25.50;32.96
13387;BME280;6763;48.524;9.044;2022-08-14T07:39:48;97124.44;;;25.64;32.95
13387;BME280;6763;48.524;9.044;2022-08-14T07:42:14;97121.22;;;25.79;32.53
13387;BME280;6763;48.524;9.044;2022-08-14T07:44:39;97121.81;;;25.93;32.45
13387;BME280;6763;48.524;9.044;2022-08-14T07:47:04;97117.75;;;26.08;32.33
13387;BME280;6763;48.524;9.044;2022-08-14T07:49:33;97124.03;;;26.26;32.27
13387;BME280;6763;48.524;9.044;2022-08-14T07:52:00;97129.19;;;26.46;31.62
13387;BME280;6763;48.524;9.044;2022-08-14T07:54:26;97125.94;;;26.62;31.35
13387;BME280;6763;48.524;9.044;2022-08-14T07:56:52;97124.81;;;26.74;30.69
13387;BME280;6763;48.524;9.044;2022-08-14T07:59:17;97130.78;;;26.86;30.86
13387;BME280;6763;48.524;9.044;2022-08-14T08:01:46;97126.97;;;26.98;30.48
13387;BME280;6763;48.524;9.044;2022-08-14T08:04:12;97133.63;;;27.12;30.51
13387;BME280;6763;48.524;9.044;2022-08-14T08:06:37;97130.22;;;27.29;30.02
13387;BME280;6763;48.524;9.044;2022-08-14T08:09:03;97132.25;;;27.44;29.93
13387;BME280;6763;48.524;9.044;2022-08-14T08:11:33;97132.13;;;27.63;29.84
13387;BME280;6763;48.524;9.044;2022-08-14T08:14:02;97134.66;;;27.83;29.44
13387;BME280;6763;48.524;9.044;2022-08-14T08:16:28;97136.38;;;28.01;29.16
13387;BME280;6763;48.524;9.044;2022-08-14T08:18:53;97123.56;;;28.22;29.20
13387;BME280;6763;48.524;9.044;2022-08-14T08:21:18;97114.44;;;28.43;28.72
13387;BME280;6763;48.524;9.044;2022-08-14T08:23:45;97112.41;;;28.62;28.32
13387;BME280;6763;48.524;9.044;2022-08-14T08:26:11;97108.84;;;28.79;28.33
13387;BME280;6763;48.524;9.044;2022-08-14T08:28:36;97104.47;;;28.96;27.72
13387;BME280;6763;48.524;9.044;2022-08-14T08:31:04;97106.19;;;29.13;27.24
13387;BME280;6763;48.524;9.044;2022-08-14T08:33:32;97099.97;;;29.30;26.98
13387;BME280;6763;48.524;9.044;2022-08-14T08:36:00;97097.03;;;29.49;26.86
13387;BME280;6763;48.524;9.044;2022-08-14T08:38:27;97099.41;;;29.69;26.37
13387;BME280;6763;48.524;9.044;2022-08-14T08:40:56;97097.47;;;29.87;26.25
13387;BME280;6763;48.524;9.044;2022-08-14T08:43:28;97089.97;;;30.06;25.86
13387;BME280;6763;48.524;9.044;2022-08-14T08:46:04;97081.97;;;30.23;25.34
13387;BME280;6763;48.524;9.044;2022-08-14T08:48:52;97071.31;;;30.39;24.92
13387;BME280;6763;48.524;9.044;2022-08-14T08:51:32;97067.78;;;30.54;24.85
13387;BME280;6763;48.524;9.044;2022-08-14T08:54:10;97072.06;;;30.71;24.75
13387;BME280;6763;48.524;9.044;2022-08-14T08:56:42;97084.91;;;30.92;24.37
13387;BME280;6763;48.524;9.044;2022-08-14T09:01:58;97078.22;;;31.35;23.63
13387;BME280;6763;48.524;9.044;2022-08-14T09:04:29;97080.50;;;31.54;23.22
13387;BME280;6763;48.524;9.044;2022-08-14T09:06:56;97078.84;;;31.76;22.91
13387;BME280;6763;48.524;9.044;2022-08-14T09:09:23;97070.72;;;31.92;22.80
13387;BME280;6763;48.524;9.044;2022-08-14T09:11:50;97063.59;;;32.07;22.41
13387;BME280;6763;48.524;9.044;2022-08-14T09:14:18;97059.78;;;32.24;21.93
13387;BME280;6763;48.524;9.044;2022-08-14T09:16:44;97061.63;;;32.38;21.77
13387;BME280;6763;48.524;9.044;2022-08-14T09:19:11;97065.41;;;32.52;20.99
13387;BME280;6763;48.524;9.044;2022-08-14T09:21:38;97055.81;;;32.72;20.49
13387;BME280;6763;48.524;9.044;2022-08-14T09:24:06;97051.53;;;32.92;20.06
13387;BME280;6763;48.524;9.044;2022-08-14T09:26:32;97056.19;;;33.13;20.31
13387;BME280;6763;48.524;9.044;2022-08-14T09:28:57;97056.06;;;33.36;19.61
13387;BME280;6763;48.524;9.044;2022-08-14T09:31:24;97049.16;;;33.62;19.64
13387;BME280;6763;48.524;9.044;2022-08-14T09:44:42;97002.06;;;34.85;17.99
13387;BME280;6763;48.524;9.044;2022-08-14T09:47:10;97009.56;;;34.97;17.55
13387;BME280;6763;48.524;9.044;2022-08-14T09:49:37;97020.03;;;35.19;17.80
13387;BME280;6763;48.524;9.044;2022-08-14T09:52:15;97032.97;;;35.43;17.69
13387;BME280;6763;48.524;9.044;2022-08-14T09:54:45;97023.91;;;35.58;17.36
13387;BME280;6763;48.524;9.044;2022-08-14T09:57:23;97017.94;;;35.75;16.88
13387;BME280;6763;48.524;9.044;2022-08-14T09:59:50;97010.72;;;35.95;16.49
13387;BME280;6763;48.524;9.044;2022-08-14T10:02:28;96998.97;;;36.16;15.58
13387;BME280;6763;48.524;9.044;2022-08-14T10:05:28;97000.41;;;36.32;14.82
13387;BME280;6763;48.524;9.044;2022-08-14T10:07:58;96992.53;;;36.50;14.33
13387;BME280;6763;48.524;9.044;2022-08-14T10:10:30;96995.41;;;36.68;14.09
13387;BME280;6763;48.524;9.044;2022-08-14T10:12:56;96995.56;;;36.86;14.39
13387;BME280;6763;48.524;9.044;2022-08-14T10:15:25;96984.06;;;37.10;13.94
13387;BME280;6763;48.524;9.044;2022-08-14T10:18:09;96985.19;;;37.34;13.80
13387;BME280;6763;48.524;9.044;2022-08-14T10:20:49;96989.91;;;37.52;13.29
13387;BME280;6763;48.524;9.044;2022-08-14T10:23:18;96986.28;;;37.64;12.74
13387;BME280;6763;48.524;9.044;2022-08-14T10:25:55;96980.59;;;37.79;12.63
13387;BME280;6763;48.524;9.044;2022-08-14T10:28:22;96974.50;;;37.90;12.58
13387;BME280;6763;48.524;9.044;2022-08-14T10:30:48;96964.25;;;37.99;12.68
13387;BME280;6763;48.524;9.044;2022-08-14T10:35:53;96962.19;;;38.19;12.29
13387;BME280;6763;48.524;9.044;2022-08-14T10:38:29;96962.88;;;38.39;11.81
13387;BME280;6763;48.524;9.044;2022-08-14T10:41:17;96946.72;;;38.51;11.61
13387;BME280;6763;48.524;9.044;2022-08-14T10:43:44;96944.56;;;38.59;11.79
13387;BME280;6763;48.524;9.044;2022-08-14T10:46:38;96938.47;;;38.64;11.02
13387;BME280;6763;48.524;9.044;2022-08-14T10:49:05;96944.72;;;38.64;11.32
13387;BME280;6763;48.524;9.044;2022-08-14T10:51:32;96944.47;;;38.66;11.24
13387;BME280;6763;48.524;9.044;2022-08-14T10:54:05;96936.28;;;38.72;10.89
13387;BME280;6763;48.524;9.044;2022-08-14T10:56:34;96920.84;;;38.79;11.13
13387;BME280;6763;48.524;9.044;2022-08-14T10:59:07;96923.97;;;38.94;10.99
13387;BME280;6763;48.524;9.044;2022-08-14T11:01:35;96915.53;;;39.02;10.24
13387;BME280;6763;48.524;9.044;2022-08-14T11:04:01;96927.38;;;38.90;10.85
13387;BME280;6763;48.524;9.044;2022-08-14T11:06:27;96926.97;;;38.86;10.42
13387;BME280;6763;48.524;9.044;2022-08-14T11:08:53;96932.03;;;38.83;10.85
13387;BME280;6763;48.524;9.044;2022-08-14T11:11:20;96929.47;;;38.70;10.58
13387;BME280;6763;48.524;9.044;2022-08-14T11:13:47;96935.06;;;38.50;10.64
13387;BME280;6763;48.524;9.044;2022-08-14T11:16:15;96938.03;;;38.48;10.77
13387;BME280;6763;48.524;9.044;2022-08-14T11:18:45;96934.03;;;38.51;10.77
13387;BME280;6763;48.524;9.044;2022-08-14T11:21:15;96938.84;;;38.67;11.07
13387;BME280;6763;48.524;9.044;2022-08-14T11:23:43;96917.56;;;38.89;10.49
13387;BME280;6763;48.524;9.044;2022-08-14T11:26:10;96922.16;;;39.06;10.27
13387;BME280;6763;48.524;9.044;2022-08-14T11:28:41;96928.22;;;39.20;10.09
13387;BME280;6763;48.524;9.044;2022-08-14T11:31:09;96932.31;;;39.41;10.10
13387;BME280;6763;48.524;9.044;2022-08-14T11:33:35;96923.06;;;39.60;9.97
13387;BME280;6763;48.524;9.044;2022-08-14T11:36:04;96925.03;;;39.71;9.87
13387;BME280;6763;48.524;9.044;2022-08-14T11:38:38;96914.66;;;39.80;9.76
13387;BME280;6763;48.524;9.044;2022-08-14T11:41:05;96913.84;;;39.91;9.50
13387;BME280;6763;48.524;9.044;2022-08-14T11:43:37;96903.72;;;39.98;9.68
13387;BME280;6763;48.524;9.044;2022-08-14T11:46:04;96903.25;;;40.01;8.77
13387;BME280;6763;48.524;9.044;2022-08-14T11:48:30;96900.88;;;39.93;9.26
13387;BME280;6763;48.524;9.044;2022-08-14T11:50:55;96905.38;;;39.99;9.40
13387;BME280;6763;48.524;9.044;2022-08-14T11:53:26;96899.22;;;40.03;9.49
13387;BME280;6763;48.524;9.044;2022-08-14T11:55:58;96898.06;;;39.99;9.32
13387;BME280;6763;48.524;9.044;2022-08-14T11:58:37;96891.91;;;39.81;9.06
13387;BME280;6763;48.524;9.044;2022-08-14T12:01:06;96892.97;;;39.68;9.25
13387;BME280;6763;48.524;9.044;2022-08-14T12:03:46;96882.50;;;39.72;9.46
13387;BME280;6763;48.524;9.044;2022-08-14T12:06:16;96887.44;;;39.86;9.66
13387;BME280;6763;48.524;9.044;2022-08-14T12:08:43;96885.59;;;40.10;9.27
13387;BME280;6763;48.524;9.044;2022-08-14T12:11:12;96886.16;;;40.35;9.41
13387;BME280;6763;48.524;9.044;2022-08-14T12:13:39;96882.72;;;40.40;8.75
13387;BME280;6763;48.524;9.044;2022-08-14T12:16:08;96874.16;;;40.19;9.11
13387;BME280;6763;48.524;9.044;2022-08-14T12:18:41;96864.59;;;39.94;9.30
13387;BME280;6763;48.524;9.044;2022-08-14T12:23:38;96860.94;;;40.00;9.43
13387;BME280;6763;48.524;9.044;2022-08-14T12:26:06;96860.00;;;40.17;9.53
13387;BME280;6763;48.524;9.044;2022-08-14T12:28:32;96838.16;;;40.24;8.52
13387;BME280;6763;48.524;9.044;2022-08-14T12:30:58;96844.66;;;40.00;9.17
13387;BME280;6763;48.524;9.044;2022-08-14T12:33:29;96839.38;;;39.82;9.14
13387;BME280;6763;48.524;9.044;2022-08-14T12:35:58;96835.47;;;39.78;9.37
13387;BME280;6763;48.524;9.044;2022-08-14T12:41:02;96835.25;;;40.14;9.41
13387;BME280;6763;48.524;9.044;2022-08-14T12:43:29;96820.44;;;40.45;9.29
13387;BME280;6763;48.524;9.044;2022-08-14T12:45:55;96817.28;;;40.76;9.14
13387;BME280;6763;48.524;9.044;2022-08-14T12:48:21;96819.47;;;41.02;8.93
13387;BME280;6763;48.524;9.044;2022-08-14T12:50:48;96823.44;;;41.28;9.01
13387;BME280;6763;48.524;9.044;2022-08-14T12:53:17;96817.66;;;41.53;8.48
13387;BME280;6763;48.524;9.044;2022-08-14T12:55:43;96825.47;;;41.49;8.43
13387;BME280;6763;48.524;9.044;2022-08-14T12:58:10;96821.84;;;41.43;8.26
13387;BME280;6763;48.524;9.044;2022-08-14T13:00:44;96819.69;;;41.45;8.37
13387;BME280;6763;48.524;9.044;2022-08-14T13:03:24;96818.50;;;41.53;8.20
13387;BME280;6763;48.524;9.044;2022-08-14T13:05:51;96801.50;;;41.63;8.18
13387;BME280;6763;48.524;9.044;2022-08-14T13:08:16;96801.59;;;41.68;8.01
13387;BME280;6763;48.524;9.044;2022-08-14T13:10:41;96798.78;;;41.46;7.84
13387;BME280;6763;48.524;9.044;2022-08-14T13:13:08;96801.88;;;41.21;8.37
13387;BME280;6763;48.524;9.044;2022-08-14T13:15:34;96799.56;;;41.13;8.24
13387;BME280;6763;48.524;9.044;2022-08-14T13:18:01;96796.19;;;41.06;7.89
13387;BME280;6763;48.524;9.044;2022-08-14T13:20:28;96790.50;;;40.79;8.32
13387;BME280;6763;48.524;9.044;2022-08-14T13:22:55;96792.97;;;40.53;8.02
13387;BME280;6763;48.524;9.044;2022-08-14T13:25:23;96793.81;;;40.42;8.50
13387;BME280;6763;48.524;9.044;2022-08-14T13:27:51;96789.66;;;40.51;8.40
13387;BME280;6763;48.524;9.044;2022-08-14T13:30:20;96786.38;;;40.77;8.48
13387;BME280;6763;48.524;9.044;2022-08-14T13:32:53;96786.06;;;41.18;8.22
13387;BME280;6763;48.524;9.044;2022-08-14T13:35:19;96780.56;;;41.13;7.78
13387;BME280;6763;48.524;9.044;2022-08-14T13:37:46;96773.56;;;40.72;8.01
13387;BME280;6763;48.524;9.044;2022-08-14T13:40:15;96770.69;;;40.51;8.13